^^
NorthLandsweather Station Historical Data
 
Daily Summary for October 22, 2018 Units:  English    Metric   Both
Daily Weekly Monthly Yearly Custom
  Current: High: Low: Average:
Temperature: 48.5 °F 48.5 °F 24.9 °F 29.2 °F
Dew Point: 34.8 °F 37.1 °F 21.7 °F 25.3 °F
Humidity: 59% 91% 59% 85%
Wind Speed: 5.8mph 5.8mph 0mph 0.3mph
Wind Gust: 1.1mph 4.1mph - -
WindNNW - - SW
Pressure: 30.01 in 30.05 in 30.01 in -
Precipitation: 0 in      
Historical Graphs
 
 
Tabular Data for October 22, 2018
Time Temperature Dew Point Pressure Wind Wind Speed Wind Gust Humidity Rainfall Rate (Hourly) solar
00:04 30.2 °F 25.7 °F 30.04 in Calm     83% 0 in 0.00 W/m2
00:09 30.2 °F 25.7 °F 30.04 in Calm     83% 0 in 0.00 W/m2
00:14 30.2 °F 25.7 °F 30.05 in Calm     83% 0 in 0.00 W/m2
00:19 30.3 °F 25.8 °F 30.05 in Calm     83% 0 in 0.00 W/m2
00:24 30.5 °F 26 °F 30.05 in Calm     83% 0 in 0.00 W/m2
00:29 30.6 °F 25.8 °F 30.05 in Calm     82% 0 in 0.00 W/m2
00:34 30.5 °F 25.7 °F 30.05 in Calm     82% 0 in 0.00 W/m2
00:39 30.2 °F 25.4 °F 30.05 in Calm     82% 0 in 0.00 W/m2
00:44 30.1 °F 25.3 °F 30.05 in Calm     82% 0 in 0.00 W/m2
00:49 30 °F 25.5 °F 30.05 in Calm     83% 0 in 0.00 W/m2
00:54 29.8 °F 25.3 °F 30.05 in Calm     83% 0 in 0.00 W/m2
00:59 29.8 °F 25.3 °F 30.05 in Calm     83% 0 in 0.00 W/m2
01:04 29.5 °F 25 °F 30.05 in Calm     83% 0 in 0.00 W/m2
01:09 29.4 °F 24.9 °F 30.05 in Calm     83% 0 in 0.00 W/m2
01:14 29.2 °F 25 °F 30.05 in Calm     84% 0 in 0.00 W/m2
01:19 29.1 °F 24.9 °F 30.05 in Calm     84% 0 in 0.00 W/m2
01:24 29.2 °F 25 °F 30.05 in Calm     84% 0 in 0.00 W/m2
01:29 29 °F 24.8 °F 30.05 in Calm     84% 0 in 0.00 W/m2
01:34 28.8 °F 24.6 °F 30.05 in Calm     84% 0 in 0.00 W/m2
01:39 28.5 °F 24.3 °F 30.05 in Calm     84% 0 in 0.00 W/m2
01:44 28.4 °F 24.2 °F 30.05 in Calm     84% 0 in 0.00 W/m2
01:49 28.4 °F 24.5 °F 30.05 in Calm     85% 0 in 0.00 W/m2
01:54 28.2 °F 24.3 °F 30.05 in Calm     85% 0 in 0.00 W/m2
01:59 28.1 °F 24.2 °F 30.05 in Calm     85% 0 in 0.00 W/m2
02:04 28.1 °F 24.2 °F 30.05 in Calm     85% 0 in 0.00 W/m2
02:09 28.1 °F 24.2 °F 30.05 in Calm     85% 0 in 0.00 W/m2
02:14 28 °F 24.1 °F 30.05 in Calm     85% 0 in 0.00 W/m2
02:19 27.8 °F 23.9 °F 30.04 in Calm     85% 0 in 0.00 W/m2
02:24 27.7 °F 24.1 °F 30.04 in Calm     86% 0 in 0.00 W/m2
02:29 27.7 °F 24.1 °F 30.04 in Calm     86% 0 in 0.00 W/m2
02:34 27.5 °F 23.9 °F 30.04 in Calm     86% 0 in 0.00 W/m2
02:39 27.6 °F 24 °F 30.04 in Calm     86% 0 in 0.00 W/m2
02:44 27.5 °F 23.9 °F 30.04 in Calm     86% 0 in 0.00 W/m2
02:49 27.1 °F 23.5 °F 30.04 in Calm     86% 0 in 0.00 W/m2
02:54 26.9 °F 23.3 °F 30.04 in Calm     86% 0 in 0.00 W/m2
02:59 26.9 °F 23.3 °F 30.04 in Calm     86% 0 in 0.00 W/m2
03:04 26.8 °F 23.4 °F 30.04 in Calm     87% 0 in 0.00 W/m2
03:09 26.8 °F 23.4 °F 30.04 in Calm     87% 0 in 0.00 W/m2
03:14 26.6 °F 23.3 °F 30.04 in Calm     87% 0 in 0.00 W/m2
03:19 26.6 °F 23.3 °F 30.04 in Calm     87% 0 in 0.00 W/m2
03:24 26.3 °F 23 °F 30.04 in Calm     87% 0 in 0.00 W/m2
03:29 26.2 °F 22.9 °F 30.04 in Calm     87% 0 in 0.00 W/m2
03:34 26.4 °F 23.1 °F 30.04 in Calm     87% 0 in 0.00 W/m2
03:39 26.4 °F 23.1 °F 30.04 in Calm     87% 0 in 0.00 W/m2
03:44 26.5 °F 23.2 °F 30.04 in Calm     87% 0 in 0.00 W/m2
03:49 26.5 °F 23.2 °F 30.04 in Calm     87% 0 in 0.00 W/m2
03:54 26.6 °F 23.3 °F 30.04 in Calm     87% 0 in 0.00 W/m2
03:59 26.7 °F 23.1 °F 30.04 in Calm     86% 0 in 0.00 W/m2
04:04 26.7 °F 23.1 °F 30.04 in Calm     86% 0 in 0.00 W/m2
04:09 26.7 °F 23.1 °F 30.04 in Calm     86% 0 in 0.00 W/m2
04:14 26.7 °F 23.1 °F 30.03 in Calm     86% 0 in 0.00 W/m2
04:19 26.5 °F 22.9 °F 30.04 in Calm     86% 0 in 0.00 W/m2
04:24 26.4 °F 22.8 °F 30.04 in Calm     86% 0 in 0.00 W/m2
04:29 26.2 °F 22.6 °F 30.03 in Calm     86% 0 in 0.00 W/m2
04:34 26.1 °F 22.5 °F 30.04 in Calm     86% 0 in 0.00 W/m2
04:39 26.1 °F 22.8 °F 30.04 in Calm     87% 0 in 0.00 W/m2
04:44 26.1 °F 22.8 °F 30.04 in Calm     87% 0 in 0.00 W/m2
04:49 25.8 °F 22.2 °F 30.03 in Calm     86% 0 in 0.00 W/m2
04:54 25.6 °F 22.3 °F 30.03 in Calm     87% 0 in 0.00 W/m2
04:59 25.7 °F 22.4 °F 30.03 in Calm     87% 0 in 0.00 W/m2
05:04 25.6 °F 22.3 °F 30.03 in Calm     87% 0 in 0.00 W/m2
05:09 25.4 °F 22.1 °F 30.03 in Calm     87% 0 in 0.00 W/m2
05:14 25.3 °F 22 °F 30.04 in Calm     87% 0 in 0.00 W/m2
05:19 25.4 °F 22.1 °F 30.04 in Calm     87% 0 in 0.00 W/m2
05:24 25.4 °F 22.1 °F 30.04 in Calm     87% 0 in 0.00 W/m2
05:29 25.4 °F 22.1 °F 30.04 in Calm     87% 0 in 0.00 W/m2
05:34 25.3 °F 22 °F 30.04 in Calm     87% 0 in 0.00 W/m2
05:39 25 °F 21.7 °F 30.04 in Calm     87% 0 in 0.00 W/m2
05:44 24.9 °F 21.8 °F 30.03 in Calm     88% 0 in 0.00 W/m2
05:49 24.9 °F 21.8 °F 30.04 in Calm     88% 0 in 0.00 W/m2
05:54 25.1 °F 22 °F 30.04 in Calm     88% 0 in 0.00 W/m2
05:59 25.3 °F 22.2 °F 30.04 in Calm     88% 0 in 0.00 W/m2
06:04 25.4 °F 22.3 °F 30.04 in Calm     88% 0 in 0.00 W/m2
06:09 25.5 °F 22.2 °F 30.04 in Calm     87% 0 in 0.00 W/m2
06:14 25.4 °F 22.1 °F 30.04 in Calm     87% 0 in 0.00 W/m2
06:19 25.3 °F 22 °F 30.04 in Calm     87% 0 in 0.00 W/m2
06:24 25.4 °F 22.1 °F 30.04 in Calm     87% 0 in 0.00 W/m2
06:29 25.3 °F 22 °F 30.04 in Calm     87% 0 in 0.00 W/m2
06:34 25.3 °F 22 °F 30.04 in Calm     87% 0 in 0.00 W/m2
06:39 25.3 °F 22 °F 30.03 in Calm     87% 0 in 0.00 W/m2
06:44 25.2 °F 21.9 °F 30.03 in Calm     87% 0 in 0.00 W/m2
06:49 25.2 °F 21.9 °F 30.03 in Calm     87% 0 in 0.00 W/m2
06:54 25.3 °F 22 °F 30.03 in Calm     87% 0 in 0.00 W/m2
06:59 25.4 °F 22.1 °F 30.03 in Calm     87% 0 in 0.00 W/m2
07:04 25.6 °F 22.3 °F 30.03 in Calm     87% 0 in 0.00 W/m2
07:09 25.7 °F 22.4 °F 30.02 in Calm     87% 0 in 0.00 W/m2
07:14 25.8 °F 22.7 °F 30.02 in Calm     88% 0 in 0.00 W/m2
07:19 25.8 °F 22.7 °F 30.02 in Calm     88% 0 in 0.00 W/m2
07:24 26 °F 22.9 °F 30.02 in Calm     88% 0 in 0.00 W/m2
07:29 25.9 °F 22.6 °F 30.02 in Calm     87% 0 in 60.30 W/m2
07:34 25.7 °F 22.4 °F 30.02 in Calm     87% 0 in 103.70 W/m2
07:39 25.5 °F 22.2 °F 30.03 in Calm     87% 0 in 112.80 W/m2
07:44 25.5 °F 22.4 °F 30.03 in Calm     88% 0 in 131.00 W/m2
07:49 25.4 °F 22.3 °F 30.03 in Calm     88% 0 in 145.10 W/m2
07:54 25.6 °F 22.5 °F 30.03 in Calm     88% 0 in 145.10 W/m2
07:59 25.6 °F 22.8 °F 30.03 in Calm     89% 0 in 158.30 W/m2
08:04 25.7 °F 22.9 °F 30.03 in Calm     89% 0 in 162.30 W/m2
08:09 25.9 °F 23.1 °F 30.03 in Calm     89% 0 in 161.30 W/m2
08:14 26 °F 23.2 °F 30.03 in Calm     89% 0 in 168.40 W/m2
08:19 26.2 °F 23.4 °F 30.03 in Calm     89% 0 in 167.30 W/m2
08:24 26.5 °F 23.7 °F 30.03 in Calm     89% 0 in 168.40 W/m2
08:29 26.7 °F 23.9 °F 30.03 in Calm     89% 0 in 175.40 W/m2
08:34 27 °F 24.5 °F 30.02 in Calm     90% 0 in 173.40 W/m2
08:39 27.2 °F 24.7 °F 30.02 in Calm     90% 0 in 179.50 W/m2
08:44 27.6 °F 25.1 °F 30.02 in Calm     90% 0 in 182.50 W/m2
08:49 28 °F 25.4 °F 30.02 in Calm     90% 0 in 186.50 W/m2
08:54 28.7 °F 26.4 °F 30.02 in Calm     91% 0 in 183.50 W/m2
08:59 29.3 °F 27 °F 30.02 in Calm     91% 0 in 197.70 W/m2
09:04 29.8 °F 27.5 °F 30.02 in WSW 1.2 mph   91% 0 in 200.70 W/m2
09:09 30.6 °F 28.3 °F 30.01 in South 3.5 mph   91% 0 in 200.70 W/m2
09:14 31.4 °F 29.1 °F 30.02 in South 2.3 mph 0.2 mph 91% 0 in 212.80 W/m2
09:19 32.3 °F 30 °F 30.02 in Calm   0.2 mph 91% 0 in 217.80 W/m2
09:24 33.3 °F 30.7 °F 30.02 in Calm     90% 0 in 221.90 W/m2
09:29 34 °F 31.1 °F 30.02 in South 1.2 mph 0.1 mph 89% 0 in 222.90 W/m2
09:34 34.5 °F 31.3 °F 30.02 in Calm     88% 0 in 209.80 W/m2
09:39 35.2 °F 32 °F 30.02 in Calm     88% 0 in 211.80 W/m2
09:44 36 °F 33.1 °F 30.02 in Calm     89% 0 in 211.80 W/m2
09:49 36.9 °F 33.7 °F 30.02 in South 1.2 mph 0.1 mph 88% 0 in 212.80 W/m2
09:54 37.7 °F 33.9 °F 30.02 in Calm     86% 0 in 225.90 W/m2
09:59 38.6 °F 34.5 °F 30.01 in Calm     85% 0 in 226.90 W/m2
10:04 39.1 °F 34.4 °F 30.01 in South 2.3 mph 0.9 mph 83% 0 in 219.90 W/m2
10:09 39.8 °F 34.8 °F 30.01 in South 1.2 mph   82% 0 in 219.90 W/m2
10:14 40.6 °F 35.5 °F 30.01 in WSW 4.6 mph 0.3 mph 82% 0 in 221.90 W/m2
10:19 41.4 °F 35.7 °F 30.01 in WSW 3.5 mph 0.1 mph 80% 0 in 223.90 W/m2
10:24 42.4 °F 36.7 °F 30.01 in Calm   0.2 mph 80% 0 in 225.90 W/m2
10:29 43.4 °F 36.3 °F 30.01 in SSW 3.5 mph 0.5 mph 76% 0 in 233.00 W/m2
10:34 44.5 °F 35.7 °F 30.01 in WSW 4.6 mph 4.1 mph 71% 0 in 225.90 W/m2
10:39 45.5 °F 35.2 °F 30.01 in West 3 mph 1.3 mph 67% 0 in 227.90 W/m2
10:44 46.4 °F 37.1 °F 30.01 in Calm     70% 0 in 230.00 W/m2
10:49 47 °F 35.8 °F 30.01 in Calm     65% 0 in 232.00 W/m2
10:54 47.8 °F 35.4 °F 30.01 in East 4.6 mph 1.6 mph 62% 0 in 268.30 W/m2
10:59 48.5 °F 34.8 °F 30.01 in NNW 5.8 mph 1.1 mph 59% 0 in 269.40 W/m2
Winter, Wisconsin USA
Compliments of Weather Underground - 2 mb